Inmocean — ZCXX2 — position and weather

sailwx.info

Track history (hours):
 
Tides and Currents Weather Stations Pressure Air Temp Water Temp Dewpoint Dewpoint Depression Visibility Wind Speed Wind Dir Waves Ship Positions

Inmocean

Last reported at 2016-Jun-26 17:10 UTC. Time now 2016-Jun-27 13:16 UTC.
Position N 42°24' E 018°29'.

Type: Sailing vessel. MMSI: 319120000.

Date/timePositionNaut miles runAvg speedWind from/ knotsBaromVisibWave heightAir tempDewpointWater temp
2016-Jun-26 17:10N 42°24' E 018°29'4 7.1
2016-Jun-26 16:33N 42°26' E 018°35'5 4.8
2016-Jun-26 15:32N 42°26' E 018°41'0 0.0
2016-Jun-26 14:32N 42°26' E 018°41'0 0.1
2016-Jun-26 13:33N 42°26' E 018°41'1 0.9
2016-Jun-26 12:31N 42°25' E 018°41'0 0.0
2016-Jun-26 11:31N 42°25' E 018°41'0 0.1
2016-Jun-26 10:33N 42°25' E 018°41'5 4.7
2016-Jun-26 09:29N 42°22' E 018°36'13 0.8
2016-Jun-25 16:07N 42°16' E 018°52'5 9.2
2016-Jun-25 15:32N 42°17' E 018°45'7 7.1
2016-Jun-25 14:32N 42°23' E 018°39'0 0.0
2016-Jun-25 13:29N 42°23' E 018°39'0 0.0
2016-Jun-25 12:32N 42°23' E 018°39'0 0.0
2016-Jun-25 11:29N 42°23' E 018°39'0 0.0
2016-Jun-25 10:32N 42°23' E 018°39'0 0.0
2016-Jun-25 09:29N 42°23' E 018°39'0 0.0
2016-Jun-25 08:29N 42°23' E 018°39'2 2.4
2016-Jun-25 07:33N 42°22' E 018°37'4 4.2
2016-Jun-25 06:33N 42°26' E 018°37'4 2.0
2016-Jun-25 04:33N 42°29' E 018°40'0 0.0
2016-Jun-25 03:33N 42°29' E 018°40'0 0.0
2016-Jun-25 02:33N 42°29' E 018°40'0 0.0
2016-Jun-25 01:33N 42°29' E 018°40'0 0.0
2016-Jun-25 00:33N 42°29' E 018°40'0 0.0
2016-Jun-24 23:30N 42°29' E 018°40'0 0.0
2016-Jun-24 22:27N 42°29' E 018°40'0 0.0
2016-Jun-24 21:30N 42°29' E 018°40'0 0.0
2016-Jun-24 20:30N 42°29' E 018°40'0 0.0
2016-Jun-24 19:30N 42°29' E 018°40'0 0.0
2016-Jun-24 18:33N 42°29' E 018°40'0 0.0
2016-Jun-24 17:30N 42°29' E 018°40'0 0.0
2016-Jun-24 16:33N 42°29' E 018°40'0 0.0
2016-Jun-24 14:33N 42°29' E 018°40'0 0.0
2016-Jun-24 13:30N 42°29' E 018°40'0 0.3
2016-Jun-24 12:33N 42°29' E 018°40'4 4.4
2016-Jun-24 11:32N 42°25' E 018°42'0 0.0
2016-Jun-24 10:32N 42°25' E 018°42'0 0.0
2016-Jun-24 09:32N 42°25' E 018°42'0 0.0
2016-Jun-24 08:32N 42°25' E 018°42'0 0.0
2016-Jun-24 07:32N 42°25' E 018°42'0 0.0
2016-Jun-24 04:32N 42°25' E 018°42'0 0.0
2016-Jun-24 03:32N 42°25' E 018°42'0 0.0
2016-Jun-24 02:32N 42°25' E 018°42'0 0.0
2016-Jun-24 01:32N 42°25' E 018°42'0 0.0
2016-Jun-24 00:29N 42°25' E 018°42'0 0.0
2016-Jun-23 23:32N 42°25' E 018°42'0 0.0
2016-Jun-23 22:32N 42°25' E 018°42'0 0.0
2016-Jun-23 21:32N 42°25' E 018°42'0 0.0
2016-Jun-23 20:29N 42°25' E 018°42'0 0.0
2016-Jun-23 19:32N 42°25' E 018°42'0 0.0
2016-Jun-23 18:32N 42°25' E 018°42'0 0.0
2016-Jun-23 17:32N 42°25' E 018°42'0 0.0
2016-Jun-23 16:32N 42°25' E 018°42'0 0.0
2016-Jun-23 15:32N 42°25' E 018°42'0 0.0
2016-Jun-23 14:32N 42°25' E 018°42'0 0.0
2016-Jun-23 13:32N 42°25' E 018°42'0 0.0
2016-Jun-23 12:32N 42°25' E 018°42'0 0.0
2016-Jun-23 11:32N 42°25' E 018°42'0 0.0
2016-Jun-23 10:32N 42°25' E 018°42'1 1.0
2016-Jun-23 09:32N 42°26' E 018°41'0 0.0
2016-Jun-23 08:32N 42°26' E 018°41'0 0.0
2016-Jun-23 07:32N 42°26' E 018°41'0 0.0
2016-Jun-23 05:32N 42°26' E 018°41'0 0.0
2016-Jun-23 04:32N 42°26' E 018°41'0 0.0
2016-Jun-23 03:32N 42°26' E 018°41'0 0.0
2016-Jun-23 02:32N 42°26' E 018°41'0 0.0
2016-Jun-23 01:32N 42°26' E 018°41'0 0.0
2016-Jun-23 00:32N 42°26' E 018°41'0 0.0
2016-Jun-22 23:32N 42°26' E 018°41'0 0.0
2016-Jun-22 22:32N 42°26' E 018°41'0 0.0
2016-Jun-22 21:32N 42°26' E 018°41'0 0.0
2016-Jun-22 20:32N 42°26' E 018°41'0 0.0
2016-Jun-22 19:32N 42°26' E 018°41'0 0.0
2016-Jun-22 18:32N 42°26' E 018°41'0 0.0
2016-Jun-22 17:32N 42°26' E 018°41'0 0.0
2016-Jun-22 16:32N 42°26' E 018°41'0 0.0
2016-Jun-22 15:32N 42°26' E 018°41'0 0.0
2016-Jun-22 14:32N 42°26' E 018°41'0 0.0
2016-Jun-22 13:32N 42°26' E 018°41'0 0.0
2016-Jun-22 12:32N 42°26' E 018°41'0 0.0
2016-Jun-22 11:32N 42°26' E 018°41'0 0.0
2016-Jun-22 10:32N 42°26' E 018°41'0 0.0
2016-Jun-22 09:32N 42°26' E 018°41'0 0.0
2016-Jun-22 08:32N 42°26' E 018°41'0 0.0
2016-Jun-22 07:32N 42°26' E 018°41'0 0.0
2016-Jun-22 06:32N 42°26' E 018°41'0 0.0
2016-Jun-22 05:32N 42°26' E 018°41'0 0.0
2016-Jun-22 04:32N 42°26' E 018°41'0 0.0
2016-Jun-22 03:32N 42°26' E 018°41'0 0.0
2016-Jun-22 02:23N 42°26' E 018°41'0 0.0
2016-Jun-22 01:17N 42°26' E 018°41'0 0.0
2016-Jun-22 00:32N 42°26' E 018°41'0 0.0
2016-Jun-21 23:32N 42°26' E 018°41'0 0.0
2016-Jun-21 22:32N 42°26' E 018°41'0 0.0
2016-Jun-21 21:32N 42°26' E 018°41'0 0.0
2016-Jun-21 20:32N 42°26' E 018°41'0 0.0
2016-Jun-21 19:32N 42°26' E 018°41'0 0.0
2016-Jun-21 18:32N 42°26' E 018°41'0 0.0
2016-Jun-21 17:32N 42°26' E 018°41'0 0.0
2016-Jun-21 16:32N 42°26' E 018°41'0 0.0
2016-Jun-21 15:32N 42°26' E 018°41'0 0.0
2016-Jun-21 14:32N 42°26' E 018°41'0 0.0
2016-Jun-21 13:32N 42°26' E 018°41'0 0.0
2016-Jun-21 12:32N 42°26' E 018°41'0 0.0
2016-Jun-21 11:32N 42°26' E 018°41'0 0.0
2016-Jun-21 10:32N 42°26' E 018°41'0 0.0
2016-Jun-21 09:32N 42°26' E 018°41'0 0.0
2016-Jun-21 08:32N 42°26' E 018°41'0 0.0
2016-Jun-21 07:32N 42°26' E 018°41'0 0.0
2016-Jun-21 04:32N 42°26' E 018°41'0 0.0
2016-Jun-21 03:32N 42°26' E 018°41'0 0.0
2016-Jun-21 02:32N 42°26' E 018°41'0 0.0
2016-Jun-21 01:32N 42°26' E 018°41'0 0.0
2016-Jun-21 00:32N 42°26' E 018°41'0 0.0
2016-Jun-20 23:32N 42°26' E 018°41'0 0.0
2016-Jun-20 22:32N 42°26' E 018°41'0 0.0
2016-Jun-20 21:32N 42°26' E 018°41'0 0.0
2016-Jun-20 20:32N 42°26' E 018°41'0 0.0
2016-Jun-20 19:32N 42°26' E 018°41'0 0.0
2016-Jun-20 18:32N 42°26' E 018°41'0 0.0
2016-Jun-20 17:32N 42°26' E 018°41'0 0.0
2016-Jun-20 16:32N 42°26' E 018°41'0 0.0
2016-Jun-20 15:32N 42°26' E 018°41'0 0.0
2016-Jun-20 14:32N 42°26' E 018°41'0 0.0
2016-Jun-20 13:32N 42°26' E 018°41'0 0.0
2016-Jun-20 12:32N 42°26' E 018°41'0 0.0
2016-Jun-20 11:32N 42°26' E 018°41'0 0.0
2016-Jun-20 10:32N 42°26' E 018°41'0 0.0
2016-Jun-20 09:32N 42°26' E 018°41'0 0.0
2016-Jun-20 08:32N 42°26' E 018°41'0 0.0
2016-Jun-20 07:32N 42°26' E 018°41'0 0.0
2016-Jun-20 06:32N 42°26' E 018°41'0 0.0
2016-Jun-20 05:32N 42°26' E 018°41'0 0.0
2016-Jun-20 04:32N 42°26' E 018°41'0 0.0
2016-Jun-20 03:32N 42°26' E 018°41'0 0.0
2016-Jun-20 02:32N 42°26' E 018°41'0 0.0
2016-Jun-20 01:32N 42°26' E 018°41'0 0.0
2016-Jun-20 00:32N 42°26' E 018°41'0 0.0
2016-Jun-19 23:32N 42°26' E 018°41'0 0.0
2016-Jun-19 22:32N 42°26' E 018°41'0 0.0
2016-Jun-19 21:32N 42°26' E 018°41'0 0.0
2016-Jun-19 20:32N 42°26' E 018°41'0 0.0
2016-Jun-19 19:32N 42°26' E 018°41'0 0.0
2016-Jun-19 18:32N 42°26' E 018°41'0 0.0
2016-Jun-19 17:32N 42°26' E 018°41'0 0.0
2016-Jun-19 16:32N 42°26' E 018°41'0 0.0
2016-Jun-19 15:32N 42°26' E 018°41'0 0.0
2016-Jun-19 14:32N 42°26' E 018°41'0 0.0
2016-Jun-19 13:32N 42°26' E 018°41'0 0.0
2016-Jun-19 12:32N 42°26' E 018°41'0 0.0
2016-Jun-19 11:32N 42°26' E 018°41'0 0.0
2016-Jun-19 10:32N 42°26' E 018°41'0 0.1
2016-Jun-19 09:32N 42°26' E 018°41'0 0.0
2016-Jun-19 08:32N 42°26' E 018°41'0 0.1
2016-Jun-19 07:33N 42°26' E 018°41'8 7.7
2016-Jun-19 06:30N 42°21' E 018°33'1010.5
2016-Jun-19 05:33N 42°11' E 018°32'295 9.2
2016-Jun-17 21:26N 37°37' E 016°10'124 8.9
2016-Jun-17 07:33N 35°58' E 014°36'  
Track history (hours):
 
Tides and Currents Weather Stations Pressure Air Temp Water Temp Dewpoint Dewpoint Depression Visibility Wind Speed Wind Dir Waves Ship Positions

Inmocean

Last reported at 2016-Jun-26 17:10 UTC. Time now 2016-Jun-27 13:16 UTC.
Position N 42°24' E 018°29'.

Type: Sailing vessel. MMSI: 319120000.

Date/timePositionNaut miles runAvg speedWind from/ knotsBaromVisibWave heightAir tempDewpointWater temp
2016-Jun-26 17:10N 42°24' E 018°29'4 7.1
2016-Jun-26 16:33N 42°26' E 018°35'5 4.8
2016-Jun-26 15:32N 42°26' E 018°41'0 0.0
2016-Jun-26 14:32N 42°26' E 018°41'0 0.1
2016-Jun-26 13:33N 42°26' E 018°41'1 0.9
2016-Jun-26 12:31N 42°25' E 018°41'0 0.0
2016-Jun-26 11:31N 42°25' E 018°41'0 0.1
2016-Jun-26 10:33N 42°25' E 018°41'5 4.7
2016-Jun-26 09:29N 42°22' E 018°36'13 0.8
2016-Jun-25 16:07N 42°16' E 018°52'5 9.2
2016-Jun-25 15:32N 42°17' E 018°45'7 7.1
2016-Jun-25 14:32N 42°23' E 018°39'0 0.0
2016-Jun-25 13:29N 42°23' E 018°39'0 0.0
2016-Jun-25 12:32N 42°23' E 018°39'0 0.0
2016-Jun-25 11:29N 42°23' E 018°39'0 0.0
2016-Jun-25 10:32N 42°23' E 018°39'0 0.0
2016-Jun-25 09:29N 42°23' E 018°39'0 0.0
2016-Jun-25 08:29N 42°23' E 018°39'2 2.4
2016-Jun-25 07:33N 42°22' E 018°37'4 4.2
2016-Jun-25 06:33N 42°26' E 018°37'4 2.0
2016-Jun-25 04:33N 42°29' E 018°40'0 0.0
2016-Jun-25 03:33N 42°29' E 018°40'0 0.0
2016-Jun-25 02:33N 42°29' E 018°40'0 0.0
2016-Jun-25 01:33N 42°29' E 018°40'0 0.0
2016-Jun-25 00:33N 42°29' E 018°40'0 0.0
2016-Jun-24 23:30N 42°29' E 018°40'0 0.0
2016-Jun-24 22:27N 42°29' E 018°40'0 0.0
2016-Jun-24 21:30N 42°29' E 018°40'0 0.0
2016-Jun-24 20:30N 42°29' E 018°40'0 0.0
2016-Jun-24 19:30N 42°29' E 018°40'0 0.0
2016-Jun-24 18:33N 42°29' E 018°40'0 0.0
2016-Jun-24 17:30N 42°29' E 018°40'0 0.0
2016-Jun-24 16:33N 42°29' E 018°40'0 0.0
2016-Jun-24 14:33N 42°29' E 018°40'0 0.0
2016-Jun-24 13:30N 42°29' E 018°40'0 0.3
2016-Jun-24 12:33N 42°29' E 018°40'4 4.4
2016-Jun-24 11:32N 42°25' E 018°42'0 0.0
2016-Jun-24 10:32N 42°25' E 018°42'0 0.0
2016-Jun-24 09:32N 42°25' E 018°42'0 0.0
2016-Jun-24 08:32N 42°25' E 018°42'0 0.0
2016-Jun-24 07:32N 42°25' E 018°42'0 0.0
2016-Jun-24 04:32N 42°25' E 018°42'0 0.0
2016-Jun-24 03:32N 42°25' E 018°42'0 0.0
2016-Jun-24 02:32N 42°25' E 018°42'0 0.0
2016-Jun-24 01:32N 42°25' E 018°42'0 0.0
2016-Jun-24 00:29N 42°25' E 018°42'0 0.0
2016-Jun-23 23:32N 42°25' E 018°42'0 0.0
2016-Jun-23 22:32N 42°25' E 018°42'0 0.0
2016-Jun-23 21:32N 42°25' E 018°42'0 0.0
2016-Jun-23 20:29N 42°25' E 018°42'0 0.0
2016-Jun-23 19:32N 42°25' E 018°42'0 0.0
2016-Jun-23 18:32N 42°25' E 018°42'0 0.0
2016-Jun-23 17:32N 42°25' E 018°42'0 0.0
2016-Jun-23 16:32N 42°25' E 018°42'0 0.0
2016-Jun-23 15:32N 42°25' E 018°42'0 0.0
2016-Jun-23 14:32N 42°25' E 018°42'0 0.0
2016-Jun-23 13:32N 42°25' E 018°42'0 0.0
2016-Jun-23 12:32N 42°25' E 018°42'0 0.0
2016-Jun-23 11:32N 42°25' E 018°42'0 0.0
2016-Jun-23 10:32N 42°25' E 018°42'1 1.0
2016-Jun-23 09:32N 42°26' E 018°41'0 0.0
2016-Jun-23 08:32N 42°26' E 018°41'0 0.0
2016-Jun-23 07:32N 42°26' E 018°41'0 0.0
2016-Jun-23 05:32N 42°26' E 018°41'0 0.0
2016-Jun-23 04:32N 42°26' E 018°41'0 0.0
2016-Jun-23 03:32N 42°26' E 018°41'0 0.0
2016-Jun-23 02:32N 42°26' E 018°41'0 0.0
2016-Jun-23 01:32N 42°26' E 018°41'0 0.0
2016-Jun-23 00:32N 42°26' E 018°41'0 0.0
2016-Jun-22 23:32N 42°26' E 018°41'0 0.0
2016-Jun-22 22:32N 42°26' E 018°41'0 0.0
2016-Jun-22 21:32N 42°26' E 018°41'0 0.0
2016-Jun-22 20:32N 42°26' E 018°41'0 0.0
2016-Jun-22 19:32N 42°26' E 018°41'0 0.0
2016-Jun-22 18:32N 42°26' E 018°41'0 0.0
2016-Jun-22 17:32N 42°26' E 018°41'0 0.0
2016-Jun-22 16:32N 42°26' E 018°41'0 0.0
2016-Jun-22 15:32N 42°26' E 018°41'0 0.0
2016-Jun-22 14:32N 42°26' E 018°41'0 0.0
2016-Jun-22 13:32N 42°26' E 018°41'0 0.0
2016-Jun-22 12:32N 42°26' E 018°41'0 0.0
2016-Jun-22 11:32N 42°26' E 018°41'0 0.0
2016-Jun-22 10:32N 42°26' E 018°41'0 0.0
2016-Jun-22 09:32N 42°26' E 018°41'0 0.0
2016-Jun-22 08:32N 42°26' E 018°41'0 0.0
2016-Jun-22 07:32N 42°26' E 018°41'0 0.0
2016-Jun-22 06:32N 42°26' E 018°41'0 0.0
2016-Jun-22 05:32N 42°26' E 018°41'0 0.0
2016-Jun-22 04:32N 42°26' E 018°41'0 0.0
2016-Jun-22 03:32N 42°26' E 018°41'0 0.0
2016-Jun-22 02:23N 42°26' E 018°41'0 0.0
2016-Jun-22 01:17N 42°26' E 018°41'0 0.0
2016-Jun-22 00:32N 42°26' E 018°41'0 0.0
2016-Jun-21 23:32N 42°26' E 018°41'0 0.0
2016-Jun-21 22:32N 42°26' E 018°41'0 0.0
2016-Jun-21 21:32N 42°26' E 018°41'0 0.0
2016-Jun-21 20:32N 42°26' E 018°41'0 0.0
2016-Jun-21 19:32N 42°26' E 018°41'0 0.0
2016-Jun-21 18:32N 42°26' E 018°41'0 0.0
2016-Jun-21 17:32N 42°26' E 018°41'0 0.0
2016-Jun-21 16:32N 42°26' E 018°41'0 0.0
2016-Jun-21 15:32N 42°26' E 018°41'0 0.0
2016-Jun-21 14:32N 42°26' E 018°41'0 0.0
2016-Jun-21 13:32N 42°26' E 018°41'0 0.0
2016-Jun-21 12:32N 42°26' E 018°41'0 0.0
2016-Jun-21 11:32N 42°26' E 018°41'0 0.0
2016-Jun-21 10:32N 42°26' E 018°41'0 0.0
2016-Jun-21 09:32N 42°26' E 018°41'0 0.0
2016-Jun-21 08:32N 42°26' E 018°41'0 0.0
2016-Jun-21 07:32N 42°26' E 018°41'0 0.0
2016-Jun-21 04:32N 42°26' E 018°41'0 0.0
2016-Jun-21 03:32N 42°26' E 018°41'0 0.0
2016-Jun-21 02:32N 42°26' E 018°41'0 0.0
2016-Jun-21 01:32N 42°26' E 018°41'0 0.0
2016-Jun-21 00:32N 42°26' E 018°41'0 0.0
2016-Jun-20 23:32N 42°26' E 018°41'0 0.0
2016-Jun-20 22:32N 42°26' E 018°41'0 0.0
2016-Jun-20 21:32N 42°26' E 018°41'0 0.0
2016-Jun-20 20:32N 42°26' E 018°41'0 0.0
2016-Jun-20 19:32N 42°26' E 018°41'0 0.0
2016-Jun-20 18:32N 42°26' E 018°41'0 0.0
2016-Jun-20 17:32N 42°26' E 018°41'0 0.0
2016-Jun-20 16:32N 42°26' E 018°41'0 0.0
2016-Jun-20 15:32N 42°26' E 018°41'0 0.0
2016-Jun-20 14:32N 42°26' E 018°41'0 0.0
2016-Jun-20 13:32N 42°26' E 018°41'0 0.0
2016-Jun-20 12:32N 42°26' E 018°41'0 0.0
2016-Jun-20 11:32N 42°26' E 018°41'0 0.0
2016-Jun-20 10:32N 42°26' E 018°41'0 0.0
2016-Jun-20 09:32N 42°26' E 018°41'0 0.0
2016-Jun-20 08:32N 42°26' E 018°41'0 0.0
2016-Jun-20 07:32N 42°26' E 018°41'0 0.0
2016-Jun-20 06:32N 42°26' E 018°41'0 0.0
2016-Jun-20 05:32N 42°26' E 018°41'0 0.0
2016-Jun-20 04:32N 42°26' E 018°41'0 0.0
2016-Jun-20 03:32N 42°26' E 018°41'0 0.0
2016-Jun-20 02:32N 42°26' E 018°41'0 0.0
2016-Jun-20 01:32N 42°26' E 018°41'0 0.0
2016-Jun-20 00:32N 42°26' E 018°41'0 0.0
2016-Jun-19 23:32N 42°26' E 018°41'0 0.0
2016-Jun-19 22:32N 42°26' E 018°41'0 0.0
2016-Jun-19 21:32N 42°26' E 018°41'0 0.0
2016-Jun-19 20:32N 42°26' E 018°41'0 0.0
2016-Jun-19 19:32N 42°26' E 018°41'0 0.0
2016-Jun-19 18:32N 42°26' E 018°41'0 0.0
2016-Jun-19 17:32N 42°26' E 018°41'0 0.0
2016-Jun-19 16:32N 42°26' E 018°41'0 0.0
2016-Jun-19 15:32N 42°26' E 018°41'0 0.0
2016-Jun-19 14:32N 42°26' E 018°41'0 0.0
2016-Jun-19 13:32N 42°26' E 018°41'0 0.0
2016-Jun-19 12:32N 42°26' E 018°41'0 0.0
2016-Jun-19 11:32N 42°26' E 018°41'0 0.0
2016-Jun-19 10:32N 42°26' E 018°41'0 0.1
2016-Jun-19 09:32N 42°26' E 018°41'0 0.0
2016-Jun-19 08:32N 42°26' E 018°41'0 0.1
2016-Jun-19 07:33N 42°26' E 018°41'8 7.7
2016-Jun-19 06:30N 42°21' E 018°33'1010.5
2016-Jun-19 05:33N 42°11' E 018°32'295 9.2
2016-Jun-17 21:26N 37°37' E 016°10'124 8.9
2016-Jun-17 07:33N 35°58' E 014°36'  

Dump ship's entire track history